sensor_id;sensor_type;location;lat;lon;timestamp;P1;durP1;ratioP1;P2;durP2;ratioP2
57752;SDS011;43583;53.132;6.574;2022-10-26T00:02:23;7.10;;;4.97;;
57752;SDS011;43583;53.132;6.574;2022-10-26T00:04:49;10.93;;;5.07;;
57752;SDS011;43583;53.132;6.574;2022-10-26T00:07:15;12.30;;;6.25;;
57752;SDS011;43583;53.132;6.574;2022-10-26T00:09:41;11.60;;;6.13;;
57752;SDS011;43583;53.132;6.574;2022-10-26T00:12:06;12.23;;;6.25;;
57752;SDS011;43583;53.132;6.574;2022-10-26T00:14:32;12.13;;;6.10;;
57752;SDS011;43583;53.132;6.574;2022-10-26T00:16:58;14.27;;;6.70;;
57752;SDS011;43583;53.132;6.574;2022-10-26T00:19:24;15.38;;;5.25;;
57752;SDS011;43583;53.132;6.574;2022-10-26T00:21:49;9.43;;;5.38;;
57752;SDS011;43583;53.132;6.574;2022-10-26T00:24:16;9.10;;;5.57;;
57752;SDS011;43583;53.132;6.574;2022-10-26T00:26:41;10.15;;;5.82;;
57752;SDS011;43583;53.132;6.574;2022-10-26T00:29:07;12.75;;;6.15;;
57752;SDS011;43583;53.132;6.574;2022-10-26T00:31:36;9.70;;;6.03;;
57752;SDS011;43583;53.132;6.574;2022-10-26T00:34:02;12.38;;;5.63;;
57752;SDS011;43583;53.132;6.574;2022-10-26T00:36:27;8.45;;;5.40;;
57752;SDS011;43583;53.132;6.574;2022-10-26T00:38:54;10.95;;;5.20;;
57752;SDS011;43583;53.132;6.574;2022-10-26T00:41:22;11.48;;;6.03;;
57752;SDS011;43583;53.132;6.574;2022-10-26T00:43:49;10.45;;;5.63;;
57752;SDS011;43583;53.132;6.574;2022-10-26T00:46:17;9.55;;;5.57;;
57752;SDS011;43583;53.132;6.574;2022-10-26T00:49:04;10.80;;;6.60;;
57752;SDS011;43583;53.132;6.574;2022-10-26T00:51:40;13.43;;;6.25;;
57752;SDS011;43583;53.132;6.574;2022-10-26T00:54:11;15.35;;;6.75;;
57752;SDS011;43583;53.132;6.574;2022-10-26T00:56:42;17.10;;;6.60;;
57752;SDS011;43583;53.132;6.574;2022-10-26T00:59:10;12.70;;;6.85;;
57752;SDS011;43583;53.132;6.574;2022-10-26T01:01:38;12.35;;;6.35;;
57752;SDS011;43583;53.132;6.574;2022-10-26T01:04:05;13.75;;;5.85;;
57752;SDS011;43583;53.132;6.574;2022-10-26T01:06:31;11.65;;;5.88;;
57752;SDS011;43583;53.132;6.574;2022-10-26T01:08:58;11.80;;;6.38;;
57752;SDS011;43583;53.132;6.574;2022-10-26T01:11:24;15.52;;;6.13;;
57752;SDS011;43583;53.132;6.574;2022-10-26T01:13:49;13.60;;;6.03;;
57752;SDS011;43583;53.132;6.574;2022-10-26T01:16:24;10.20;;;5.97;;
57752;SDS011;43583;53.132;6.574;2022-10-26T01:19:12;12.85;;;5.40;;
57752;SDS011;43583;53.132;6.574;2022-10-26T01:27:43;11.82;;;5.43;;
57752;SDS011;43583;53.132;6.574;2022-10-26T01:35:26;10.32;;;5.35;;
57752;SDS011;43583;53.132;6.574;2022-10-26T01:37:57;10.55;;;5.22;;
57752;SDS011;43583;53.132;6.574;2022-10-26T01:40:34;9.05;;;5.50;;
57752;SDS011;43583;53.132;6.574;2022-10-26T01:43:04;14.52;;;6.00;;
57752;SDS011;43583;53.132;6.574;2022-10-26T01:45:32;9.60;;;5.28;;
57752;SDS011;43583;53.132;6.574;2022-10-26T01:48:00;12.88;;;5.95;;
57752;SDS011;43583;53.132;6.574;2022-10-26T01:50:28;10.55;;;5.88;;
57752;SDS011;43583;53.132;6.574;2022-10-26T01:52:55;13.80;;;5.72;;
57752;SDS011;43583;53.132;6.574;2022-10-26T01:58:12;14.25;;;5.72;;
57752;SDS011;43583;53.132;6.574;2022-10-26T02:06:55;11.48;;;5.45;;
57752;SDS011;43583;53.132;6.574;2022-10-26T02:09:35;12.80;;;5.45;;
57752;SDS011;43583;53.132;6.574;2022-10-26T02:12:20;12.60;;;5.88;;
57752;SDS011;43583;53.132;6.574;2022-10-26T02:14:49;13.90;;;5.95;;
57752;SDS011;43583;53.132;6.574;2022-10-26T02:17:25;11.07;;;5.57;;
57752;SDS011;43583;53.132;6.574;2022-10-26T02:20:03;11.35;;;5.10;;
57752;SDS011;43583;53.132;6.574;2022-10-26T02:22:35;12.18;;;4.32;;
57752;SDS011;43583;53.132;6.574;2022-10-26T02:25:05;10.20;;;4.15;;
57752;SDS011;43583;53.132;6.574;2022-10-26T02:27:34;8.73;;;5.10;;
57752;SDS011;43583;53.132;6.574;2022-10-26T02:30:04;9.93;;;5.90;;
57752;SDS011;43583;53.132;6.574;2022-10-26T02:32:32;16.10;;;6.20;;
57752;SDS011;43583;53.132;6.574;2022-10-26T02:35:01;15.00;;;6.00;;
57752;SDS011;43583;53.132;6.574;2022-10-26T02:37:29;14.30;;;5.78;;
57752;SDS011;43583;53.132;6.574;2022-10-26T02:39:57;9.60;;;5.35;;
57752;SDS011;43583;53.132;6.574;2022-10-26T02:42:26;15.20;;;5.28;;
57752;SDS011;43583;53.132;6.574;2022-10-26T02:44:53;11.45;;;5.80;;
57752;SDS011;43583;53.132;6.574;2022-10-26T02:47:21;10.55;;;5.20;;
57752;SDS011;43583;53.132;6.574;2022-10-26T02:49:50;17.35;;;6.03;;
57752;SDS011;43583;53.132;6.574;2022-10-26T02:52:22;15.38;;;6.00;;
57752;SDS011;43583;53.132;6.574;2022-10-26T02:57:41;48.42;;;4.90;;
57752;SDS011;43583;53.132;6.574;2022-10-26T03:00:15;73.80;;;7.20;;
57752;SDS011;43583;53.132;6.574;2022-10-26T03:02:42;19.17;;;3.15;;
57752;SDS011;43583;53.132;6.574;2022-10-26T03:05:11;14.48;;;4.60;;
57752;SDS011;43583;53.132;6.574;2022-10-26T03:07:46;11.05;;;3.97;;
57752;SDS011;43583;53.132;6.574;2022-10-26T03:10:12;10.60;;;4.47;;
57752;SDS011;43583;53.132;6.574;2022-10-26T03:12:37;9.10;;;4.97;;
57752;SDS011;43583;53.132;6.574;2022-10-26T03:15:03;9.48;;;4.78;;
57752;SDS011;43583;53.132;6.574;2022-10-26T03:17:29;10.93;;;5.38;;
57752;SDS011;43583;53.132;6.574;2022-10-26T03:19:55;11.35;;;4.95;;
57752;SDS011;43583;53.132;6.574;2022-10-26T03:22:21;13.80;;;5.47;;
57752;SDS011;43583;53.132;6.574;2022-10-26T03:24:47;12.48;;;5.53;;
57752;SDS011;43583;53.132;6.574;2022-10-26T03:27:12;11.02;;;5.18;;
57752;SDS011;43583;53.132;6.574;2022-10-26T03:29:39;11.32;;;5.82;;
57752;SDS011;43583;53.132;6.574;2022-10-26T03:32:04;11.80;;;6.22;;
57752;SDS011;43583;53.132;6.574;2022-10-26T03:34:31;11.27;;;5.82;;
57752;SDS011;43583;53.132;6.574;2022-10-26T03:36:56;12.10;;;5.90;;
57752;SDS011;43583;53.132;6.574;2022-10-26T03:39:22;15.88;;;7.07;;
57752;SDS011;43583;53.132;6.574;2022-10-26T03:41:48;12.13;;;6.38;;
57752;SDS011;43583;53.132;6.574;2022-10-26T03:44:13;13.20;;;6.38;;
57752;SDS011;43583;53.132;6.574;2022-10-26T03:46:39;13.85;;;5.95;;
57752;SDS011;43583;53.132;6.574;2022-10-26T03:49:04;12.68;;;5.82;;
57752;SDS011;43583;53.132;6.574;2022-10-26T03:51:30;9.98;;;5.32;;
57752;SDS011;43583;53.132;6.574;2022-10-26T03:53:56;12.60;;;6.22;;
57752;SDS011;43583;53.132;6.574;2022-10-26T03:56:22;9.35;;;4.50;;
57752;SDS011;43583;53.132;6.574;2022-10-26T03:58:47;14.95;;;5.78;;
57752;SDS011;43583;53.132;6.574;2022-10-26T04:01:13;14.88;;;7.13;;
57752;SDS011;43583;53.132;6.574;2022-10-26T04:03:38;15.15;;;6.22;;
57752;SDS011;43583;53.132;6.574;2022-10-26T04:06:04;10.48;;;6.13;;
57752;SDS011;43583;53.132;6.574;2022-10-26T04:08:30;18.58;;;6.95;;
57752;SDS011;43583;53.132;6.574;2022-10-26T04:10:55;12.02;;;6.40;;
57752;SDS011;43583;53.132;6.574;2022-10-26T04:13:21;17.40;;;7.15;;
57752;SDS011;43583;53.132;6.574;2022-10-26T04:15:47;15.90;;;8.50;;
57752;SDS011;43583;53.132;6.574;2022-10-26T04:18:13;13.68;;;6.85;;
57752;SDS011;43583;53.132;6.574;2022-10-26T04:20:39;15.70;;;8.65;;
57752;SDS011;43583;53.132;6.574;2022-10-26T04:23:12;14.95;;;7.22;;
57752;SDS011;43583;53.132;6.574;2022-10-26T04:25:39;22.63;;;8.95;;
57752;SDS011;43583;53.132;6.574;2022-10-26T04:28:05;17.50;;;8.48;;
57752;SDS011;43583;53.132;6.574;2022-10-26T04:30:32;18.45;;;9.07;;
57752;SDS011;43583;53.132;6.574;2022-10-26T04:32:59;15.27;;;8.60;;
57752;SDS011;43583;53.132;6.574;2022-10-26T04:35:25;22.20;;;10.30;;
57752;SDS011;43583;53.132;6.574;2022-10-26T04:37:55;22.95;;;9.57;;
57752;SDS011;43583;53.132;6.574;2022-10-26T04:40:21;18.60;;;10.07;;
57752;SDS011;43583;53.132;6.574;2022-10-26T04:42:47;22.42;;;10.23;;
57752;SDS011;43583;53.132;6.574;2022-10-26T04:45:13;20.88;;;10.13;;
57752;SDS011;43583;53.132;6.574;2022-10-26T04:47:40;23.20;;;9.55;;
57752;SDS011;43583;53.132;6.574;2022-10-26T04:50:06;17.55;;;9.38;;
57752;SDS011;43583;53.132;6.574;2022-10-26T04:52:33;17.77;;;10.48;;
57752;SDS011;43583;53.132;6.574;2022-10-26T04:54:59;23.65;;;10.80;;
57752;SDS011;43583;53.132;6.574;2022-10-26T04:57:25;24.75;;;11.55;;
57752;SDS011;43583;53.132;6.574;2022-10-26T04:59:50;27.88;;;12.30;;
57752;SDS011;43583;53.132;6.574;2022-10-26T05:02:16;23.63;;;12.15;;
57752;SDS011;43583;53.132;6.574;2022-10-26T05:04:41;23.20;;;11.55;;
57752;SDS011;43583;53.132;6.574;2022-10-26T05:07:07;21.77;;;10.88;;
57752;SDS011;43583;53.132;6.574;2022-10-26T05:09:32;28.05;;;11.52;;
57752;SDS011;43583;53.132;6.574;2022-10-26T05:11:58;21.17;;;10.85;;
57752;SDS011;43583;53.132;6.574;2022-10-26T05:14:24;31.60;;;13.85;;
57752;SDS011;43583;53.132;6.574;2022-10-26T05:16:49;21.95;;;11.07;;
57752;SDS011;43583;53.132;6.574;2022-10-26T05:19:15;24.73;;;12.45;;
57752;SDS011;43583;53.132;6.574;2022-10-26T05:21:41;27.55;;;12.57;;
57752;SDS011;43583;53.132;6.574;2022-10-26T05:24:07;28.35;;;12.18;;
57752;SDS011;43583;53.132;6.574;2022-10-26T05:26:32;24.33;;;11.43;;
57752;SDS011;43583;53.132;6.574;2022-10-26T05:28:58;28.48;;;11.90;;
57752;SDS011;43583;53.132;6.574;2022-10-26T05:31:24;26.45;;;11.70;;
57752;SDS011;43583;53.132;6.574;2022-10-26T05:33:50;24.77;;;12.65;;
57752;SDS011;43583;53.132;6.574;2022-10-26T05:36:16;22.88;;;11.23;;
57752;SDS011;43583;53.132;6.574;2022-10-26T05:38:42;27.80;;;12.05;;
57752;SDS011;43583;53.132;6.574;2022-10-26T05:41:08;28.35;;;12.27;;
57752;SDS011;43583;53.132;6.574;2022-10-26T05:43:33;28.88;;;13.15;;
57752;SDS011;43583;53.132;6.574;2022-10-26T05:45:59;24.20;;;12.18;;
57752;SDS011;43583;53.132;6.574;2022-10-26T05:48:25;25.30;;;12.27;;
57752;SDS011;43583;53.132;6.574;2022-10-26T05:50:50;29.83;;;13.13;;
57752;SDS011;43583;53.132;6.574;2022-10-26T05:53:16;26.75;;;12.45;;
57752;SDS011;43583;53.132;6.574;2022-10-26T05:55:42;24.25;;;11.10;;
57752;SDS011;43583;53.132;6.574;2022-10-26T05:58:08;22.58;;;11.48;;
57752;SDS011;43583;53.132;6.574;2022-10-26T06:00:35;24.33;;;11.85;;
57752;SDS011;43583;53.132;6.574;2022-10-26T06:03:20;30.63;;;13.18;;
57752;SDS011;43583;53.132;6.574;2022-10-26T06:06:08;28.48;;;12.77;;
57752;SDS011;43583;53.132;6.574;2022-10-26T06:08:37;27.48;;;10.68;;
57752;SDS011;43583;53.132;6.574;2022-10-26T06:11:03;27.02;;;11.45;;
57752;SDS011;43583;53.132;6.574;2022-10-26T06:13:29;30.98;;;11.25;;
57752;SDS011;43583;53.132;6.574;2022-10-26T06:21:28;23.23;;;10.45;;
57752;SDS011;43583;53.132;6.574;2022-10-26T06:24:07;24.05;;;10.75;;
57752;SDS011;43583;53.132;6.574;2022-10-26T06:26:47;23.95;;;11.38;;
57752;SDS011;43583;53.132;6.574;2022-10-26T06:29:33;25.63;;;11.40;;
57752;SDS011;43583;53.132;6.574;2022-10-26T06:32:19;23.70;;;10.48;;
57752;SDS011;43583;53.132;6.574;2022-10-26T06:34:47;23.92;;;12.65;;
57752;SDS011;43583;53.132;6.574;2022-10-26T06:37:14;22.27;;;11.00;;
57752;SDS011;43583;53.132;6.574;2022-10-26T06:39:42;25.15;;;11.93;;
57752;SDS011;43583;53.132;6.574;2022-10-26T06:42:10;22.77;;;11.73;;
57752;SDS011;43583;53.132;6.574;2022-10-26T06:44:36;22.15;;;10.95;;
57752;SDS011;43583;53.132;6.574;2022-10-26T06:47:04;24.73;;;12.15;;
57752;SDS011;43583;53.132;6.574;2022-10-26T06:49:35;22.77;;;10.27;;
57752;SDS011;43583;53.132;6.574;2022-10-26T06:54:53;21.10;;;9.90;;
57752;SDS011;43583;53.132;6.574;2022-10-26T06:57:20;21.67;;;10.15;;
57752;SDS011;43583;53.132;6.574;2022-10-26T07:02:38;17.73;;;9.15;;
57752;SDS011;43583;53.132;6.574;2022-10-26T07:05:04;19.77;;;9.82;;
57752;SDS011;43583;53.132;6.574;2022-10-26T07:07:34;22.23;;;9.50;;
57752;SDS011;43583;53.132;6.574;2022-10-26T07:10:04;23.08;;;9.38;;
57752;SDS011;43583;53.132;6.574;2022-10-26T07:12:31;20.58;;;9.48;;
57752;SDS011;43583;53.132;6.574;2022-10-26T07:14:56;18.42;;;8.75;;
57752;SDS011;43583;53.132;6.574;2022-10-26T07:17:22;23.15;;;9.93;;
57752;SDS011;43583;53.132;6.574;2022-10-26T07:19:48;20.77;;;9.77;;
57752;SDS011;43583;53.132;6.574;2022-10-26T07:22:13;16.80;;;8.55;;
57752;SDS011;43583;53.132;6.574;2022-10-26T07:24:39;14.10;;;7.78;;
57752;SDS011;43583;53.132;6.574;2022-10-26T07:27:04;16.33;;;8.65;;
57752;SDS011;43583;53.132;6.574;2022-10-26T07:29:30;15.18;;;7.22;;
57752;SDS011;43583;53.132;6.574;2022-10-26T07:31:56;18.40;;;8.15;;
57752;SDS011;43583;53.132;6.574;2022-10-26T07:34:21;14.70;;;7.35;;
57752;SDS011;43583;53.132;6.574;2022-10-26T07:36:47;13.18;;;8.00;;
57752;SDS011;43583;53.132;6.574;2022-10-26T07:39:12;14.35;;;7.72;;
57752;SDS011;43583;53.132;6.574;2022-10-26T07:41:38;16.45;;;6.55;;
57752;SDS011;43583;53.132;6.574;2022-10-26T07:44:04;15.18;;;7.10;;
57752;SDS011;43583;53.132;6.574;2022-10-26T07:46:29;12.25;;;5.88;;
57752;SDS011;43583;53.132;6.574;2022-10-26T07:48:55;13.88;;;6.20;;
57752;SDS011;43583;53.132;6.574;2022-10-26T07:51:21;11.43;;;6.32;;
57752;SDS011;43583;53.132;6.574;2022-10-26T07:53:46;14.10;;;6.15;;
57752;SDS011;43583;53.132;6.574;2022-10-26T07:56:12;11.77;;;5.82;;
57752;SDS011;43583;53.132;6.574;2022-10-26T07:58:38;9.88;;;5.53;;
57752;SDS011;43583;53.132;6.574;2022-10-26T08:01:08;12.32;;;6.70;;
57752;SDS011;43583;53.132;6.574;2022-10-26T08:03:39;10.40;;;4.95;;
57752;SDS011;43583;53.132;6.574;2022-10-26T08:06:14;8.68;;;4.97;;
57752;SDS011;43583;53.132;6.574;2022-10-26T08:09:00;8.15;;;4.68;;
57752;SDS011;43583;53.132;6.574;2022-10-26T08:11:25;8.15;;;4.22;;
57752;SDS011;43583;53.132;6.574;2022-10-26T08:13:52;6.70;;;4.53;;
57752;SDS011;43583;53.132;6.574;2022-10-26T08:16:19;8.70;;;3.85;;
57752;SDS011;43583;53.132;6.574;2022-10-26T08:18:49;6.93;;;3.88;;
57752;SDS011;43583;53.132;6.574;2022-10-26T08:21:15;4.80;;;3.63;;
57752;SDS011;43583;53.132;6.574;2022-10-26T08:23:45;7.82;;;3.60;;
57752;SDS011;43583;53.132;6.574;2022-10-26T08:26:11;6.88;;;2.47;;
57752;SDS011;43583;53.132;6.574;2022-10-26T08:28:37;4.53;;;3.03;;
57752;SDS011;43583;53.132;6.574;2022-10-26T08:31:03;4.72;;;2.85;;
57752;SDS011;43583;53.132;6.574;2022-10-26T08:33:32;4.60;;;2.28;;
57752;SDS011;43583;53.132;6.574;2022-10-26T08:35:58;4.85;;;2.45;;
57752;SDS011;43583;53.132;6.574;2022-10-26T08:38:25;5.72;;;1.77;;
57752;SDS011;43583;53.132;6.574;2022-10-26T08:40:52;4.30;;;1.35;;
57752;SDS011;43583;53.132;6.574;2022-10-26T08:46:14;4.53;;;1.50;;
57752;SDS011;43583;53.132;6.574;2022-10-26T08:48:47;3.35;;;1.10;;
57752;SDS011;43583;53.132;6.574;2022-10-26T08:51:19;10.63;;;1.85;;
57752;SDS011;43583;53.132;6.574;2022-10-26T08:54:08;5.18;;;1.42;;
57752;SDS011;43583;53.132;6.574;2022-10-26T08:56:54;3.53;;;1.27;;
57752;SDS011;43583;53.132;6.574;2022-10-26T09:01:50;4.38;;;0.90;;
57752;SDS011;43583;53.132;6.574;2022-10-26T09:04:16;1.70;;;0.98;;
57752;SDS011;43583;53.132;6.574;2022-10-26T09:09:51;3.75;;;1.02;;
57752;SDS011;43583;53.132;6.574;2022-10-26T09:21:26;3.28;;;0.85;;
57752;SDS011;43583;53.132;6.574;2022-10-26T09:24:16;5.50;;;0.80;;
57752;SDS011;43583;53.132;6.574;2022-10-26T09:29:26;2.95;;;0.90;;
57752;SDS011;43583;53.132;6.574;2022-10-26T09:31:55;2.50;;;0.65;;
57752;SDS011;43583;53.132;6.574;2022-10-26T09:34:30;1.80;;;0.57;;
57752;SDS011;43583;53.132;6.574;2022-10-26T09:37:04;1.67;;;0.60;;
57752;SDS011;43583;53.132;6.574;2022-10-26T09:39:45;4.13;;;0.65;;
57752;SDS011;43583;53.132;6.574;2022-10-26T09:42:17;3.50;;;0.70;;
57752;SDS011;43583;53.132;6.574;2022-10-26T09:47:39;2.75;;;0.70;;
57752;SDS011;43583;53.132;6.574;2022-10-26T09:52:36;3.47;;;0.68;;
57752;SDS011;43583;53.132;6.574;2022-10-26T09:55:02;4.20;;;0.65;;
57752;SDS011;43583;53.132;6.574;2022-10-26T09:57:28;2.72;;;0.75;;
57752;SDS011;43583;53.132;6.574;2022-10-26T09:59:53;2.60;;;0.82;;
57752;SDS011;43583;53.132;6.574;2022-10-26T10:02:36;3.55;;;0.60;;
57752;SDS011;43583;53.132;6.574;2022-10-26T10:05:49;4.07;;;0.55;;
57752;SDS011;43583;53.132;6.574;2022-10-26T10:10:52;1.83;;;0.50;;
57752;SDS011;43583;53.132;6.574;2022-10-26T10:13:19;5.13;;;0.85;;
57752;SDS011;43583;53.132;6.574;2022-10-26T10:15:51;3.83;;;1.00;;
57752;SDS011;43583;53.132;6.574;2022-10-26T10:18:22;1.58;;;0.50;;
57752;SDS011;43583;53.132;6.574;2022-10-26T10:20:52;6.07;;;0.60;;
57752;SDS011;43583;53.132;6.574;2022-10-26T10:23:23;3.33;;;0.52;;
57752;SDS011;43583;53.132;6.574;2022-10-26T10:26:24;2.63;;;0.52;;
57752;SDS011;43583;53.132;6.574;2022-10-26T10:28:54;2.35;;;0.50;;
57752;SDS011;43583;53.132;6.574;2022-10-26T10:31:26;2.33;;;0.40;;
57752;SDS011;43583;53.132;6.574;2022-10-26T10:33:53;2.15;;;0.55;;
57752;SDS011;43583;53.132;6.574;2022-10-26T10:36:19;6.40;;;0.65;;
57752;SDS011;43583;53.132;6.574;2022-10-26T10:38:49;2.25;;;0.90;;
57752;SDS011;43583;53.132;6.574;2022-10-26T10:41:30;2.10;;;0.60;;
57752;SDS011;43583;53.132;6.574;2022-10-26T10:44:07;3.50;;;0.80;;
57752;SDS011;43583;53.132;6.574;2022-10-26T10:46:46;1.73;;;0.50;;
57752;SDS011;43583;53.132;6.574;2022-10-26T10:49:17;2.53;;;0.43;;
57752;SDS011;43583;53.132;6.574;2022-10-26T10:51:49;2.53;;;0.50;;
57752;SDS011;43583;53.132;6.574;2022-10-26T10:54:23;1.35;;;0.45;;
57752;SDS011;43583;53.132;6.574;2022-10-26T10:57:06;1.27;;;0.63;;
57752;SDS011;43583;53.132;6.574;2022-10-26T11:05:16;2.80;;;0.50;;
57752;SDS011;43583;53.132;6.574;2022-10-26T11:07:54;1.45;;;0.68;;
57752;SDS011;43583;53.132;6.574;2022-10-26T11:10:29;1.52;;;0.50;;
57752;SDS011;43583;53.132;6.574;2022-10-26T11:13:00;3.50;;;0.40;;
57752;SDS011;43583;53.132;6.574;2022-10-26T11:15:30;2.55;;;0.52;;
57752;SDS011;43583;53.132;6.574;2022-10-26T11:18:13;2.95;;;0.70;;
57752;SDS011;43583;53.132;6.574;2022-10-26T11:20:45;2.67;;;0.60;;
57752;SDS011;43583;53.132;6.574;2022-10-26T11:23:16;3.58;;;0.57;;
57752;SDS011;43583;53.132;6.574;2022-10-26T11:31:05;1.83;;;0.30;;
57752;SDS011;43583;53.132;6.574;2022-10-26T11:33:39;3.28;;;0.77;;
57752;SDS011;43583;53.132;6.574;2022-10-26T11:36:08;3.17;;;0.50;;
57752;SDS011;43583;53.132;6.574;2022-10-26T11:43:51;1.63;;;0.52;;
57752;SDS011;43583;53.132;6.574;2022-10-26T11:46:33;3.75;;;0.50;;
57752;SDS011;43583;53.132;6.574;2022-10-26T11:51:46;2.78;;;0.93;;
57752;SDS011;43583;53.132;6.574;2022-10-26T11:54:27;2.33;;;0.30;;
57752;SDS011;43583;53.132;6.574;2022-10-26T11:56:58;1.70;;;0.40;;
57752;SDS011;43583;53.132;6.574;2022-10-26T11:59:27;4.05;;;0.70;;
57752;SDS011;43583;53.132;6.574;2022-10-26T12:02:05;2.17;;;0.88;;
57752;SDS011;43583;53.132;6.574;2022-10-26T12:04:47;2.30;;;0.60;;
57752;SDS011;43583;53.132;6.574;2022-10-26T12:07:24;3.83;;;0.82;;
57752;SDS011;43583;53.132;6.574;2022-10-26T12:09:53;2.33;;;0.30;;
57752;SDS011;43583;53.132;6.574;2022-10-26T12:12:30;2.22;;;0.50;;
57752;SDS011;43583;53.132;6.574;2022-10-26T12:18:03;7.53;;;0.63;;
57752;SDS011;43583;53.132;6.574;2022-10-26T12:23:17;1.83;;;0.75;;
57752;SDS011;43583;53.132;6.574;2022-10-26T12:25:43;5.63;;;0.77;;
57752;SDS011;43583;53.132;6.574;2022-10-26T12:33:57;3.60;;;1.35;;
57752;SDS011;43583;53.132;6.574;2022-10-26T12:44:38;2.67;;;0.38;;
57752;SDS011;43583;53.132;6.574;2022-10-26T12:47:10;3.85;;;0.30;;
57752;SDS011;43583;53.132;6.574;2022-10-26T12:55:22;1.23;;;0.40;;
57752;SDS011;43583;53.132;6.574;2022-10-26T12:58:19;6.22;;;0.38;;
57752;SDS011;43583;53.132;6.574;2022-10-26T13:01:20;4.03;;;0.52;;
57752;SDS011;43583;53.132;6.574;2022-10-26T13:09:34;4.82;;;0.63;;
57752;SDS011;43583;53.132;6.574;2022-10-26T13:12:01;1.27;;;0.77;;
57752;SDS011;43583;53.132;6.574;2022-10-26T13:16:56;3.25;;;0.68;;
57752;SDS011;43583;53.132;6.574;2022-10-26T13:19:47;3.05;;;0.60;;
57752;SDS011;43583;53.132;6.574;2022-10-26T13:22:19;4.07;;;0.63;;
57752;SDS011;43583;53.132;6.574;2022-10-26T13:27:43;3.45;;;0.50;;
57752;SDS011;43583;53.132;6.574;2022-10-26T13:30:33;1.50;;;0.80;;
57752;SDS011;43583;53.132;6.574;2022-10-26T13:35:44;5.90;;;0.93;;
57752;SDS011;43583;53.132;6.574;2022-10-26T13:38:10;3.03;;;0.70;;
57752;SDS011;43583;53.132;6.574;2022-10-26T13:40:39;4.88;;;1.00;;
57752;SDS011;43583;53.132;6.574;2022-10-26T13:43:06;5.28;;;1.00;;
57752;SDS011;43583;53.132;6.574;2022-10-26T13:45:49;3.05;;;0.93;;
57752;SDS011;43583;53.132;6.574;2022-10-26T13:48:35;3.45;;;0.77;;
57752;SDS011;43583;53.132;6.574;2022-10-26T13:51:21;5.35;;;1.75;;
57752;SDS011;43583;53.132;6.574;2022-10-26T13:54:00;4.10;;;0.90;;
57752;SDS011;43583;53.132;6.574;2022-10-26T13:56:36;3.75;;;1.33;;
57752;SDS011;43583;53.132;6.574;2022-10-26T13:59:11;3.42;;;1.73;;
57752;SDS011;43583;53.132;6.574;2022-10-26T14:01:37;4.80;;;1.27;;
57752;SDS011;43583;53.132;6.574;2022-10-26T14:06:51;3.28;;;1.05;;
57752;SDS011;43583;53.132;6.574;2022-10-26T14:09:19;2.33;;;1.05;;
57752;SDS011;43583;53.132;6.574;2022-10-26T14:11:52;2.60;;;1.63;;
57752;SDS011;43583;53.132;6.574;2022-10-26T14:14:21;5.93;;;1.90;;
57752;SDS011;43583;53.132;6.574;2022-10-26T14:16:50;4.18;;;1.38;;
57752;SDS011;43583;53.132;6.574;2022-10-26T14:19:25;4.30;;;1.48;;
57752;SDS011;43583;53.132;6.574;2022-10-26T14:21:57;3.03;;;1.75;;
57752;SDS011;43583;53.132;6.574;2022-10-26T14:24:34;5.45;;;1.75;;
57752;SDS011;43583;53.132;6.574;2022-10-26T14:27:13;5.85;;;1.50;;
57752;SDS011;43583;53.132;6.574;2022-10-26T14:29:42;5.40;;;1.25;;
57752;SDS011;43583;53.132;6.574;2022-10-26T14:34:53;4.15;;;1.40;;
57752;SDS011;43583;53.132;6.574;2022-10-26T14:40:25;3.60;;;1.65;;
57752;SDS011;43583;53.132;6.574;2022-10-26T14:42:54;4.72;;;1.55;;
57752;SDS011;43583;53.132;6.574;2022-10-26T14:45:23;3.60;;;1.10;;
57752;SDS011;43583;53.132;6.574;2022-10-26T14:47:58;2.97;;;1.55;;
57752;SDS011;43583;53.132;6.574;2022-10-26T14:50:25;4.13;;;1.13;;
57752;SDS011;43583;53.132;6.574;2022-10-26T14:52:55;3.72;;;1.55;;
57752;SDS011;43583;53.132;6.574;2022-10-26T14:55:25;5.70;;;1.35;;
57752;SDS011;43583;53.132;6.574;2022-10-26T14:57:51;2.88;;;1.73;;
57752;SDS011;43583;53.132;6.574;2022-10-26T15:00:31;8.00;;;1.48;;
57752;SDS011;43583;53.132;6.574;2022-10-26T15:02:57;2.92;;;1.40;;
57752;SDS011;43583;53.132;6.574;2022-10-26T15:07:51;4.72;;;2.00;;
57752;SDS011;43583;53.132;6.574;2022-10-26T15:15:54;4.93;;;2.15;;
57752;SDS011;43583;53.132;6.574;2022-10-26T15:18:41;4.03;;;2.50;;
57752;SDS011;43583;53.132;6.574;2022-10-26T15:24:00;8.18;;;2.65;;
57752;SDS011;43583;53.132;6.574;2022-10-26T15:26:27;4.13;;;2.45;;
57752;SDS011;43583;53.132;6.574;2022-10-26T15:28:54;5.05;;;2.88;;
57752;SDS011;43583;53.132;6.574;2022-10-26T15:36:20;4.60;;;2.88;;
57752;SDS011;43583;53.132;6.574;2022-10-26T15:38:48;4.50;;;3.20;;
57752;SDS011;43583;53.132;6.574;2022-10-26T15:41:35;6.63;;;2.85;;
57752;SDS011;43583;53.132;6.574;2022-10-26T15:44:04;5.07;;;2.85;;
57752;SDS011;43583;53.132;6.574;2022-10-26T15:46:37;5.53;;;2.63;;
57752;SDS011;43583;53.132;6.574;2022-10-26T15:49:04;6.43;;;2.55;;
57752;SDS011;43583;53.132;6.574;2022-10-26T15:51:31;3.60;;;2.38;;
57752;SDS011;43583;53.132;6.574;2022-10-26T15:53:57;2.40;;;2.20;;
57752;SDS011;43583;53.132;6.574;2022-10-26T15:56:24;3.88;;;2.20;;
57752;SDS011;43583;53.132;6.574;2022-10-26T15:58:50;5.10;;;2.70;;
57752;SDS011;43583;53.132;6.574;2022-10-26T16:01:27;3.42;;;2.10;;
57752;SDS011;43583;53.132;6.574;2022-10-26T16:03:53;5.20;;;2.17;;
57752;SDS011;43583;53.132;6.574;2022-10-26T16:06:24;3.55;;;2.30;;
57752;SDS011;43583;53.132;6.574;2022-10-26T16:08:56;4.50;;;1.80;;
57752;SDS011;43583;53.132;6.574;2022-10-26T16:11:24;5.25;;;2.78;;
57752;SDS011;43583;53.132;6.574;2022-10-26T16:13:50;8.68;;;2.25;;
57752;SDS011;43583;53.132;6.574;2022-10-26T16:16:16;5.95;;;2.72;;
57752;SDS011;43583;53.132;6.574;2022-10-26T16:18:43;4.32;;;2.42;;
57752;SDS011;43583;53.132;6.574;2022-10-26T16:21:12;6.95;;;2.50;;
57752;SDS011;43583;53.132;6.574;2022-10-26T16:23:39;6.03;;;2.45;;
57752;SDS011;43583;53.132;6.574;2022-10-26T16:26:05;5.03;;;2.58;;
57752;SDS011;43583;53.132;6.574;2022-10-26T16:28:31;6.63;;;2.28;;
57752;SDS011;43583;53.132;6.574;2022-10-26T16:31:00;4.05;;;2.58;;
57752;SDS011;43583;53.132;6.574;2022-10-26T16:33:27;6.28;;;2.65;;
57752;SDS011;43583;53.132;6.574;2022-10-26T16:35:59;6.22;;;2.10;;
57752;SDS011;43583;53.132;6.574;2022-10-26T16:38:25;6.25;;;1.98;;
57752;SDS011;43583;53.132;6.574;2022-10-26T16:41:07;6.78;;;2.70;;
57752;SDS011;43583;53.132;6.574;2022-10-26T16:43:35;3.50;;;2.15;;
57752;SDS011;43583;53.132;6.574;2022-10-26T16:46:08;3.15;;;1.92;;
57752;SDS011;43583;53.132;6.574;2022-10-26T16:48:36;3.95;;;2.25;;
57752;SDS011;43583;53.132;6.574;2022-10-26T16:51:13;4.72;;;2.80;;
57752;SDS011;43583;53.132;6.574;2022-10-26T16:53:40;5.35;;;3.38;;
57752;SDS011;43583;53.132;6.574;2022-10-26T16:56:13;4.72;;;2.38;;
57752;SDS011;43583;53.132;6.574;2022-10-26T17:01:07;5.93;;;2.10;;
57752;SDS011;43583;53.132;6.574;2022-10-26T17:03:34;5.13;;;2.78;;
57752;SDS011;43583;53.132;6.574;2022-10-26T17:06:00;3.40;;;1.85;;
57752;SDS011;43583;53.132;6.574;2022-10-26T17:08:28;3.75;;;1.77;;
57752;SDS011;43583;53.132;6.574;2022-10-26T17:10:54;6.00;;;1.60;;
57752;SDS011;43583;53.132;6.574;2022-10-26T17:13:27;2.75;;;1.83;;
57752;SDS011;43583;53.132;6.574;2022-10-26T17:15:52;4.25;;;1.98;;
57752;SDS011;43583;53.132;6.574;2022-10-26T17:18:18;3.15;;;1.35;;
57752;SDS011;43583;53.132;6.574;2022-10-26T17:20:47;6.78;;;2.22;;
57752;SDS011;43583;53.132;6.574;2022-10-26T17:23:14;4.72;;;2.45;;
57752;SDS011;43583;53.132;6.574;2022-10-26T17:25:41;4.85;;;2.08;;